Wednesday, April 23, 2014, 7:41 PM EDT

KTHV, York Airport

Location: Spring Grove, PA, United States Lat: 39.917
Local Time: 7:41 PM EDT (23:41 GMT) Lon: -76.883
Time Zone: US/Eastern Elev: 478 ft

Show me the last for .
Show Decoded

2014-04-23 18:53 METAR KTHV 232253Z AUTO 30014G24KT 10SM BKN046 10/01 A2988 RMK AO2 PK WND
                 30026/2155 SLP120 T01000006 =
2014-04-23 17:53 METAR KTHV 232153Z AUTO 30018G27KT 10SM BKN047 11/01 A2986 RMK AO2 PK WND
                 30027/2141 SLP113 T01110011 =
2014-04-23 16:53 METAR KTHV 232053Z AUTO 32016G25KT 10SM FEW043 12/02 A2983 RMK AO2 PK WND
                 31026/2012 SLP103 T01220017 53007 =
2014-04-23 15:53 METAR KTHV 231953Z AUTO 29018G24KT 10SM OVC045 13/02 A2982 RMK AO2 SLP099
                 T01280022 =
2014-04-23 13:53 METAR KTHV 231753Z AUTO 31015G25KT 10SM OVC043 12/02 A2981 RMK AO2 SLP096
                 T01170017 10128 20078 53006 =
2014-04-23 12:53 METAR KTHV 231653Z AUTO 32018G25KT 10SM BKN043 12/02 A2979 RMK AO2 SLP092
                 T01170022 =
2014-04-23 11:53 METAR KTHV 231553Z AUTO 30015G21KT 10SM OVC043 12/03 A2979 RMK AO2 PK WND
                 30026/1515 SLP091 T01220028 =
2014-04-23 10:53 METAR KTHV 231453Z AUTO 30013G22KT 10SM OVC041 11/02 A2979 RMK AO2 SLP089
                 T01110022 51008 =
2014-04-23 09:53 METAR KTHV 231353Z AUTO 30014G22KT 10SM BKN045 09/01 A2978 RMK AO2 PK WND
                 31027/1312 SLP087 T00890011 =
2014-04-23 08:53 METAR KTHV 231253Z AUTO 30016G25KT 10SM OVC040 08/01 A2978 RMK AO2 PK WND
                 28027/1242 SLP086 T00830011 =
2014-04-23 07:53 METAR KTHV 231153Z AUTO 31010G16KT 10SM BKN041 08/01 A2976 RMK AO2 SLP082 70027
                 T00780006 10083 20061 53024 =
2014-04-23 06:53 METAR KTHV 231053Z AUTO 30009KT 10SM SCT042 07/01 A2973 RMK AO2 SLP072 T00720006
                 =
2014-04-23 05:53 METAR KTHV 230953Z AUTO 29007KT 10SM BKN042 07/02 A2970 RMK AO2 SLP060 T00720017
                 =
2014-04-23 04:53 METAR KTHV 230853Z AUTO 29006KT 10SM BKN045 08/02 A2969 RMK AO2 SLP055 T00780017
                 53000 =
2014-04-23 03:53 METAR KTHV 230753Z AUTO 26003KT 10SM OVC050 07/01 A2969 RMK AO2 SLP056 T00720011
                 =
2014-04-23 02:53 METAR KTHV 230653Z AUTO 28007KT 10SM CLR 08/01 A2969 RMK AO2 SLP057 T00780011 =
2014-04-23 01:53 METAR KTHV 230553Z AUTO 29012KT 10SM CLR 09/02 A2969 RMK AO2 SLP056 T00890017
                 10139 20089 51013 =
2014-04-23 00:53 METAR KTHV 230453Z AUTO 29010G18KT 10SM CLR 09/02 A2969 RMK AO2 PK WND
                 28028/0401 SLP056 T00940017 402110072 =
2014-04-22 23:53 METAR KTHV 230353Z AUTO 30014G25KT 10SM CLR 11/03 A2968 RMK AO2 SLP051 T01110033
                 =
2014-04-22 22:53 METAR KTHV 230253Z AUTO 30006KT 10SM FEW085 12/08 A2965 RMK AO2 SLP042 T01220083
                 53016 =
2014-04-22 21:53 METAR KTHV 230153Z AUTO 27006KT 10SM CLR 13/09 A2964 RMK AO2 SLP036 T01330089 =
2014-04-22 20:53 METAR KTHV 230053Z AUTO 29003KT 10SM FEW075 BKN100 12/10 A2962 RMK AO2 SLP031
                 T01170100 =
2014-04-22 19:53 METAR KTHV 222353Z AUTO 00000KT 10SM BKN085 13/11 A2961 RMK AO2 LTG DSNT S AND
                 SW RAE25 SLP027 P0001 60019 T01330106 10211 20128 53008 =
2014-04-22 19:43 METAR KTHV 222343Z AUTO 00000KT 10SM FEW080 SCT110 13/11 A2961 RMK AO2 LTG DSNT
                 S AND SW RAE25 P0001 T01330106 =

Support USWX by starting your Amazon purchase here.